Goodluck, Kentucky
Current Conditions -  °F | °C
As of 6:15 PM on Thursday 18 Dec 2014 (Local Time) from KGLW Reporting Station
Overcast Overcast  
Wind Chill: 33°   Ceiling: 3800
Heat Index: 33°   Visibility: 10mi
Dew Point: 27°   Wind: 0mph
Humidity: 78%   Direction: NA
Pressure: 30.22"   Gusts: NA
Location:  36.9886°N, 85.5829°W
Report Text: KGLW 190015Z AUTO 00000KT 10SM OVC038 01/M03 A3022 RMK AO2 T00071027
Loading
Personal Weather Stations






























Interactive Weather Map New forecast layout! Learn more

10-Day Weather Forecast

Advertisements
Track Severe Weather on mobile